Time;durP1;ratioP1;P1;durP2;ratioP2;P2;SDS_P1;SDS_P2;PMS_P1;PMS_P2;Temp;Humidity;BMP_temperature;BMP_pressure;BME280_temperature;BME280_humidity;BME280_pressure;Samples;Min_cycle;Max_cycle;Signal;HPM_P1;HPM_P2
2021/10/14 00:01:36;;;;;;;;;;;12.00;99.90;;;;;;1917969;73;20168;-73
2021/10/14 00:04:03;;;;;;;;;;;12.00;99.90;;;;;;1920785;73;20254;-73
2021/10/14 00:06:30;;;;;;;;;;;11.90;99.90;;;;;;1921787;73;20125;-73
2021/10/14 00:08:56;;;;;;;;;;;12.00;99.90;;;;;;1918065;73;20184;-73
2021/10/14 00:11:24;;;;;;;;;;;11.90;99.90;;;;;;1918338;73;20125;-73
2021/10/14 00:13:50;;;;;;;;;;;12.00;99.90;;;;;;1922158;73;20204;-73
2021/10/14 00:16:17;;;;;;;;;;;12.00;99.90;;;;;;1930253;73;20155;-73
2021/10/14 00:18:44;;;;;;;;;;;12.00;99.90;;;;;;1921404;73;20608;-73
2021/10/14 00:21:11;;;;;;;;;;;12.00;99.90;;;;;;1916547;73;20291;-73
2021/10/14 00:23:38;;;;;;;;;;;12.10;99.90;;;;;;1931392;73;20289;-73
2021/10/14 00:26:05;;;;;;;;;;;12.10;99.90;;;;;;1915885;73;20433;-72
2021/10/14 00:28:32;;;;;;;;;;;12.10;99.90;;;;;;1921129;73;20156;-73
2021/10/14 00:30:58;;;;;;;;;;;12.20;99.90;;;;;;1922576;73;20149;-72
2021/10/14 00:33:25;;;;;;;;;;;12.20;99.90;;;;;;1920631;73;20454;-73
2021/10/14 00:35:52;;;;;;;;;;;12.20;99.90;;;;;;1915918;73;20290;-73
2021/10/14 00:38:19;;;;;;;;;;;12.20;99.90;;;;;;1917803;73;20182;-73
2021/10/14 00:40:46;;;;;;;;;;;12.20;99.90;;;;;;1921495;73;20404;-73
2021/10/14 00:43:13;;;;;;;;;;;12.20;99.90;;;;;;1922585;73;20222;-72
2021/10/14 00:45:39;;;;;;;;;;;12.20;99.90;;;;;;1920612;73;20179;-73
2021/10/14 00:48:07;;;;;;;;;;;12.20;99.90;;;;;;1912839;73;20471;-72
2021/10/14 00:50:34;;;;;;;;;;;12.20;99.90;;;;;;1919279;73;20196;-72
2021/10/14 00:53:01;;;;;;;;;;;12.20;99.90;;;;;;1916790;73;20256;-72
2021/10/14 00:55:28;;;;;;;;;;;12.20;99.90;;;;;;1923372;73;20164;-73
2021/10/14 00:57:55;;;;;;;;;;;12.30;99.90;;;;;;1919092;73;20465;-72
2021/10/14 01:00:22;;;;;;;;;;;12.30;99.90;;;;;;1923045;73;20173;-72
2021/10/14 01:02:49;;;;;;;;;;;12.30;99.90;;;;;;1924142;73;20235;-74
2021/10/14 01:05:16;;;;;;;;;;;12.20;99.90;;;;;;1923845;73;20179;-73
2021/10/14 01:07:43;;;;;;;;;;;12.30;99.90;;;;;;1925239;73;20113;-72
2021/10/14 01:10:10;;;;;;;;;;;12.30;99.90;;;;;;1923825;73;20481;-73
2021/10/14 01:12:37;;;;;;;;;;;12.30;99.90;;;;;;1916039;73;21084;-72
2021/10/14 01:15:20;;;;;;;;;;;12.30;99.90;;;;;;1918226;73;20490;-72
2021/10/14 01:17:47;;;;;;;;;;;12.30;99.90;;;;;;1921752;73;20220;-72
2021/10/14 01:20:14;;;;;;;;;;;12.30;99.90;;;;;;1920877;73;20192;-72
2021/10/14 01:22:41;;;;;;;;;;;12.40;99.90;;;;;;1914603;73;20240;-72
2021/10/14 01:25:08;;;;;;;;;;;12.40;99.90;;;;;;1919664;73;20208;-72
2021/10/14 01:27:35;;;;;;;;;;;12.30;99.90;;;;;;1923989;73;20125;-73
2021/10/14 01:30:03;;;;;;;;;;;12.40;99.90;;;;;;1918665;73;20459;-73
2021/10/14 01:32:30;;;;;;;;;;;12.30;99.90;;;;;;1912624;73;20199;-73
2021/10/14 01:34:57;;;;;;;;;;;12.40;99.90;;;;;;1923637;73;20125;-73
2021/10/14 01:37:24;;;;;;;;;;;12.30;99.90;;;;;;1921270;73;20218;-72
2021/10/14 01:39:50;;;;;;;;;;;12.30;99.90;;;;;;1918023;73;20220;-72
2021/10/14 01:42:17;;;;;;;;;;;12.30;99.90;;;;;;1916208;73;20158;-72
2021/10/14 01:44:44;;;;;;;;;;;12.30;99.90;;;;;;1917748;73;20460;-72
2021/10/14 01:47:11;;;;;;;;;;;12.40;99.90;;;;;;1917444;74;20168;-73
2021/10/14 01:49:38;;;;;;;;;;;12.30;99.90;;;;;;1923817;73;20263;-73
2021/10/14 01:52:05;;;;;;;;;;;12.40;99.90;;;;;;1923724;73;20271;-72
2021/10/14 01:54:31;;;;;;;;;;;12.40;99.90;;;;;;1915086;73;20205;-73
2021/10/14 01:56:58;;;;;;;;;;;12.40;99.90;;;;;;1918611;73;20845;-72
2021/10/14 01:59:25;;;;;;;;;;;12.40;99.90;;;;;;1914338;73;20194;-73
2021/10/14 02:01:52;;;;;;;;;;;12.40;99.90;;;;;;1923463;73;20307;-72
2021/10/14 02:04:19;;;;;;;;;;;12.40;99.90;;;;;;1919380;73;20481;-72
2021/10/14 02:06:46;;;;;;;;;;;12.40;99.90;;;;;;1925894;73;20422;-73
2021/10/14 02:09:13;;;;;;;;;;;12.40;99.90;;;;;;1922601;73;20172;-72
2021/10/14 02:11:40;;;;;;;;;;;12.40;99.90;;;;;;1920958;73;20468;-73
2021/10/14 02:14:07;;;;;;;;;;;12.40;99.90;;;;;;1922256;73;20129;-72
2021/10/14 02:16:34;;;;;;;;;;;12.40;99.90;;;;;;1918536;73;20205;-73
2021/10/14 02:19:00;;;;;;;;;;;12.40;99.90;;;;;;1920686;73;20113;-73
2021/10/14 02:21:27;;;;;;;;;;;12.40;99.90;;;;;;1922917;73;20163;-73
2021/10/14 02:23:54;;;;;;;;;;;12.40;99.90;;;;;;1921565;73;20122;-73
2021/10/14 02:26:21;;;;;;;;;;;12.50;99.90;;;;;;1922824;73;20172;-72
2021/10/14 02:28:48;;;;;;;;;;;12.40;99.90;;;;;;1916455;73;20178;-73
2021/10/14 02:31:14;;;;;;;;;;;12.50;99.90;;;;;;1919448;73;20117;-73
2021/10/14 02:33:41;;;;;;;;;;;12.40;99.90;;;;;;1920973;73;20205;-73
2021/10/14 02:36:08;;;;;;;;;;;12.50;99.90;;;;;;1926896;73;20182;-73
2021/10/14 02:38:35;;;;;;;;;;;12.40;99.90;;;;;;1919790;73;20220;-73
2021/10/14 02:41:02;;;;;;;;;;;12.40;99.90;;;;;;1918591;73;20212;-73
2021/10/14 02:43:29;;;;;;;;;;;12.50;99.90;;;;;;1917205;73;20114;-73
2021/10/14 02:45:56;;;;;;;;;;;12.50;99.90;;;;;;1918695;73;20176;-73
2021/10/14 02:48:23;;;;;;;;;;;12.50;99.90;;;;;;1922965;73;20148;-73
2021/10/14 02:50:49;;;;;;;;;;;12.50;99.90;;;;;;1920465;73;20254;-73
2021/10/14 02:53:16;;;;;;;;;;;12.50;99.90;;;;;;1921599;73;20172;-73
2021/10/14 02:55:43;;;;;;;;;;;12.60;99.90;;;;;;1916749;73;20384;-73
2021/10/14 02:58:10;;;;;;;;;;;12.60;99.90;;;;;;1921335;73;20243;-72
2021/10/14 03:00:37;;;;;;;;;;;12.50;99.90;;;;;;1921783;73;20162;-72
2021/10/14 03:03:03;;;;;;;;;;;12.50;99.90;;;;;;1919184;73;20133;-73
2021/10/14 03:05:30;;;;;;;;;;;12.50;99.90;;;;;;1916450;73;20168;-72
2021/10/14 03:07:57;;;;;;;;;;;12.50;99.90;;;;;;1920353;73;20141;-72
2021/10/14 03:10:24;;;;;;;;;;;12.50;99.90;;;;;;1917977;73;20288;-72
2021/10/14 03:12:51;;;;;;;;;;;12.50;99.90;;;;;;1918986;73;20458;-72
2021/10/14 03:15:18;;;;;;;;;;;12.50;99.90;;;;;;1923670;73;20484;-72
2021/10/14 03:17:45;;;;;;;;;;;12.40;99.90;;;;;;1920434;73;20117;-73
2021/10/14 03:20:12;;;;;;;;;;;12.40;99.90;;;;;;1920878;73;20915;-72
2021/10/14 03:22:39;;;;;;;;;;;12.50;99.90;;;;;;1913238;73;20211;-73
2021/10/14 03:25:07;;;;;;;;;;;12.50;99.90;;;;;;1916183;73;20119;-73
2021/10/14 03:27:34;;;;;;;;;;;12.50;99.90;;;;;;1921492;73;20137;-73
2021/10/14 03:30:01;;;;;;;;;;;12.60;99.90;;;;;;1923050;73;20224;-72
2021/10/14 03:32:27;;;;;;;;;;;12.50;99.90;;;;;;1923911;73;20113;-72
2021/10/14 03:34:54;;;;;;;;;;;12.50;99.90;;;;;;1918325;73;20517;-72
2021/10/14 03:37:21;;;;;;;;;;;12.60;99.90;;;;;;1927287;73;20253;-73
2021/10/14 03:39:48;;;;;;;;;;;12.50;99.90;;;;;;1931968;73;20649;-73
2021/10/14 03:42:16;;;;;;;;;;;12.50;99.90;;;;;;1932297;73;20167;-73
2021/10/14 03:44:43;;;;;;;;;;;12.50;99.90;;;;;;1922440;73;20175;-73
2021/10/14 03:47:10;;;;;;;;;;;12.60;99.90;;;;;;1912506;73;20384;-73
2021/10/14 03:49:36;;;;;;;;;;;12.60;99.90;;;;;;1920059;73;20358;-73
2021/10/14 03:52:03;;;;;;;;;;;12.60;99.90;;;;;;1921122;73;20172;-73
2021/10/14 03:54:30;;;;;;;;;;;12.60;99.90;;;;;;1914884;73;20210;-68
2021/10/14 03:56:57;;;;;;;;;;;12.60;99.90;;;;;;1903597;73;20453;-69
2021/10/14 03:59:24;;;;;;;;;;;12.60;99.90;;;;;;1907455;73;20205;-69
2021/10/14 04:01:51;;;;;;;;;;;12.60;99.90;;;;;;1908965;73;20161;-69
2021/10/14 04:04:17;;;;;;;;;;;12.60;99.90;;;;;;1907974;73;20168;-68
2021/10/14 04:06:44;;;;;;;;;;;12.60;99.90;;;;;;1906548;73;20126;-69
2021/10/14 04:09:11;;;;;;;;;;;12.70;99.90;;;;;;1913529;73;20183;-68
2021/10/14 04:11:38;;;;;;;;;;;12.70;99.90;;;;;;1909829;73;20181;-68
2021/10/14 04:14:05;;;;;;;;;;;12.70;99.90;;;;;;1908161;73;20127;-69
2021/10/14 04:16:31;;;;;;;;;;;12.70;99.90;;;;;;1908577;73;20231;-68
2021/10/14 04:18:58;;;;;;;;;;;12.70;99.90;;;;;;1910077;73;20220;-69
2021/10/14 04:21:25;;;;;;;;;;;12.80;99.90;;;;;;1907916;73;20132;-68
2021/10/14 04:23:53;;;;;;;;;;;12.70;99.90;;;;;;1909018;73;20222;-69
2021/10/14 04:26:19;;;;;;;;;;;12.80;99.90;;;;;;1908738;73;20163;-69
2021/10/14 04:28:46;;;;;;;;;;;12.80;99.90;;;;;;1907706;73;20527;-69
2021/10/14 04:31:14;;;;;;;;;;;12.80;99.90;;;;;;1908695;73;20126;-68
2021/10/14 04:33:41;;;;;;;;;;;12.80;99.90;;;;;;1911197;73;20208;-69
2021/10/14 04:36:07;;;;;;;;;;;12.80;99.90;;;;;;1908767;73;20149;-69
2021/10/14 04:38:34;;;;;;;;;;;12.80;99.90;;;;;;1905656;73;20442;-69
2021/10/14 04:41:01;;;;;;;;;;;12.80;99.90;;;;;;1909339;73;20167;-68
2021/10/14 04:43:28;;;;;;;;;;;12.90;99.90;;;;;;1914748;73;21035;-75
2021/10/14 04:45:55;;;;;;;;;;;12.90;99.90;;;;;;1913633;73;20191;-67
2021/10/14 04:48:21;;;;;;;;;;;12.90;99.90;;;;;;1908782;73;20578;-67
2021/10/14 04:50:48;;;;;;;;;;;12.90;99.90;;;;;;1915767;73;20182;-68
2021/10/14 04:53:15;;;;;;;;;;;12.90;99.90;;;;;;1913371;73;20125;-69
2021/10/14 04:55:42;;;;;;;;;;;12.90;99.90;;;;;;1909842;73;20395;-69
2021/10/14 04:58:09;;;;;;;;;;;13.00;99.90;;;;;;1914724;73;20193;-70
2021/10/14 05:00:36;;;;;;;;;;;13.00;99.90;;;;;;1918871;73;20555;-69
2021/10/14 05:03:02;;;;;;;;;;;13.00;99.90;;;;;;1909187;73;20204;-70
2021/10/14 05:05:29;;;;;;;;;;;12.90;99.90;;;;;;1914927;73;20243;-70
2021/10/14 05:07:56;;;;;;;;;;;13.00;99.90;;;;;;1910957;73;20179;-69
2021/10/14 05:10:23;;;;;;;;;;;13.00;99.90;;;;;;1909418;73;20183;-70
2021/10/14 05:12:50;;;;;;;;;;;13.00;99.90;;;;;;1906308;73;20315;-70
2021/10/14 05:15:16;;;;;;;;;;;13.00;99.90;;;;;;1902600;73;20461;-70
2021/10/14 05:17:43;;;;;;;;;;;12.90;99.90;;;;;;1917133;73;20195;-69
2021/10/14 05:20:10;;;;;;;;;;;13.00;99.90;;;;;;1908551;73;20203;-69
2021/10/14 05:22:37;;;;;;;;;;;13.00;99.90;;;;;;1909991;73;20221;-69
2021/10/14 05:25:04;;;;;;;;;;;13.00;99.90;;;;;;1909494;73;20453;-69
2021/10/14 05:27:31;;;;;;;;;;;13.00;99.90;;;;;;1910433;73;20960;-70
2021/10/14 05:29:58;;;;;;;;;;;13.00;99.90;;;;;;1918233;73;20207;-71
2021/10/14 05:32:25;;;;;;;;;;;13.00;99.90;;;;;;1910871;73;20218;-69
2021/10/14 05:34:52;;;;;;;;;;;13.00;99.90;;;;;;1907141;73;20154;-71
2021/10/14 05:37:18;;;;;;;;;;;13.00;99.90;;;;;;1914430;73;20140;-71
2021/10/14 05:39:45;;;;;;;;;;;13.00;99.90;;;;;;1903563;75;20468;-70
2021/10/14 05:42:12;;;;;;;;;;;13.00;99.90;;;;;;1908801;73;20183;-71
2021/10/14 05:44:39;;;;;;;;;;;13.00;99.90;;;;;;1903222;73;20446;-71
2021/10/14 05:47:06;;;;;;;;;;;13.00;99.90;;;;;;1910547;73;20228;-70
2021/10/14 05:49:32;;;;;;;;;;;13.00;99.90;;;;;;1903256;74;20479;-71
2021/10/14 05:51:59;;;;;;;;;;;13.00;99.90;;;;;;1904206;73;20125;-71
2021/10/14 05:54:26;;;;;;;;;;;13.00;99.90;;;;;;1910185;73;20205;-71
2021/10/14 05:56:53;;;;;;;;;;;13.00;99.90;;;;;;1906309;73;20124;-71
2021/10/14 05:59:20;;;;;;;;;;;13.00;99.90;;;;;;1904111;75;20167;-71
2021/10/14 06:01:46;;;;;;;;;;;13.00;99.90;;;;;;1905336;73;20931;-71
2021/10/14 06:04:13;;;;;;;;;;;12.90;99.90;;;;;;1904715;73;20124;-70
2021/10/14 06:06:40;;;;;;;;;;;13.00;99.90;;;;;;1914039;73;20459;-70
2021/10/14 06:09:07;;;;;;;;;;;13.00;99.90;;;;;;1906997;73;20162;-70
2021/10/14 06:11:34;;;;;;;;;;;13.00;99.90;;;;;;1905611;73;20240;-71
2021/10/14 06:14:19;;;;;;;;;;;13.00;99.90;;;;;;1912382;73;20223;-69
2021/10/14 06:16:46;;;;;;;;;;;13.00;99.90;;;;;;1916088;73;20271;-69
2021/10/14 06:19:12;;;;;;;;;;;13.00;99.90;;;;;;1919053;73;20170;-69
2021/10/14 06:21:39;;;;;;;;;;;13.00;99.90;;;;;;1918780;73;20114;-69
2021/10/14 06:24:06;;;;;;;;;;;13.00;99.90;;;;;;1914257;73;20108;-69
2021/10/14 06:26:33;;;;;;;;;;;13.00;99.90;;;;;;1922305;73;20169;-69
2021/10/14 06:29:00;;;;;;;;;;;13.00;99.90;;;;;;1918670;73;20126;-69
2021/10/14 06:31:27;;;;;;;;;;;13.00;99.90;;;;;;1921257;72;20284;-69
2021/10/14 06:33:53;;;;;;;;;;;13.00;99.90;;;;;;1923668;73;20278;-68
2021/10/14 06:36:20;;;;;;;;;;;13.00;99.90;;;;;;1920138;73;20230;-69
2021/10/14 06:38:47;;;;;;;;;;;13.00;99.90;;;;;;1922126;73;20196;-68
2021/10/14 06:41:15;;;;;;;;;;;12.90;99.90;;;;;;1923662;73;20155;-68
2021/10/14 06:43:42;;;;;;;;;;;13.00;99.90;;;;;;1919748;72;20201;-68
2021/10/14 06:46:10;;;;;;;;;;;13.00;99.90;;;;;;1916848;73;20179;-68
2021/10/14 06:48:36;;;;;;;;;;;13.00;99.90;;;;;;1921206;73;20132;-68
2021/10/14 06:51:03;;;;;;;;;;;12.90;99.90;;;;;;1917487;73;20239;-68
2021/10/14 06:53:31;;;;;;;;;;;12.90;99.90;;;;;;1918834;72;20115;-68
2021/10/14 06:55:59;;;;;;;;;;;13.00;99.90;;;;;;1918706;73;20198;-68
2021/10/14 06:58:26;;;;;;;;;;;13.00;99.90;;;;;;1920865;73;20241;-68
2021/10/14 07:00:52;;;;;;;;;;;12.90;99.90;;;;;;1919363;73;20226;-68
2021/10/14 07:03:19;;;;;;;;;;;13.00;99.90;;;;;;1914465;73;20254;-68
2021/10/14 07:05:46;;;;;;;;;;;13.00;99.90;;;;;;1923943;72;20173;-68
2021/10/14 07:08:13;;;;;;;;;;;13.00;99.90;;;;;;1918891;73;20126;-68
2021/10/14 07:10:45;;;;;;;;;;;13.00;99.90;;;;;;1910073;73;20191;-68
2021/10/14 07:13:08;;;;;;;;;;;13.10;99.90;;;;;;1906399;73;20175;-68
2021/10/14 07:15:35;;;;;;;;;;;13.00;99.90;;;;;;1917481;73;20120;-67
2021/10/14 07:18:02;;;;;;;;;;;13.00;99.90;;;;;;1909547;73;20209;-69
2021/10/14 07:20:29;;;;;;;;;;;13.00;99.90;;;;;;1909890;73;20170;-68
2021/10/14 07:22:55;;;;;;;;;;;13.10;99.90;;;;;;1903226;73;20167;-68
2021/10/14 07:25:22;;;;;;;;;;;13.10;99.90;;;;;;1910100;73;20207;-68
2021/10/14 07:27:49;;;;;;;;;;;13.00;99.90;;;;;;1913761;73;20207;-69
2021/10/14 07:30:16;;;;;;;;;;;13.10;99.90;;;;;;1901001;73;20217;-69
2021/10/14 07:32:43;;;;;;;;;;;13.00;99.90;;;;;;1910638;73;20220;-69
2021/10/14 07:35:09;;;;;;;;;;;13.00;99.90;;;;;;1919481;73;20176;-69
2021/10/14 07:37:36;;;;;;;;;;;13.00;99.90;;;;;;1907792;73;20220;-69
2021/10/14 07:40:03;;;;;;;;;;;13.00;99.90;;;;;;1903956;73;20218;-70
2021/10/14 07:42:30;;;;;;;;;;;13.10;99.90;;;;;;1909002;73;20158;-69
2021/10/14 07:44:57;;;;;;;;;;;13.10;99.90;;;;;;1908775;73;20426;-69
2021/10/14 07:47:23;;;;;;;;;;;13.10;99.90;;;;;;1908757;73;20114;-70
2021/10/14 07:49:50;;;;;;;;;;;13.10;99.90;;;;;;1907880;73;20167;-70
2021/10/14 07:52:17;;;;;;;;;;;13.10;99.90;;;;;;1910595;73;20165;-69
2021/10/14 07:54:44;;;;;;;;;;;13.10;99.90;;;;;;1909645;73;20276;-70
2021/10/14 07:57:11;;;;;;;;;;;13.10;99.90;;;;;;1903007;73;20187;-69
2021/10/14 07:59:37;;;;;;;;;;;13.20;99.90;;;;;;1909248;73;20212;-69
2021/10/14 08:02:04;;;;;;;;;;;13.10;99.90;;;;;;1905536;73;20188;-68
2021/10/14 08:04:31;;;;;;;;;;;13.20;99.90;;;;;;1904862;73;20247;-69
2021/10/14 08:06:58;;;;;;;;;;;13.20;99.90;;;;;;1905530;73;20140;-69
2021/10/14 08:09:25;;;;;;;;;;;13.20;99.90;;;;;;1901351;73;20155;-68
2021/10/14 08:11:51;;;;;;;;;;;13.20;99.90;;;;;;1903954;73;20194;-70
2021/10/14 08:14:18;;;;;;;;;;;13.20;99.90;;;;;;1903464;73;20187;-70
2021/10/14 08:16:45;;;;;;;;;;;13.30;99.90;;;;;;1904802;73;21059;-69
2021/10/14 08:19:12;;;;;;;;;;;13.30;99.90;;;;;;1907018;73;20177;-70
2021/10/14 08:21:39;;;;;;;;;;;13.30;99.90;;;;;;1908129;73;20545;-70
2021/10/14 08:24:05;;;;;;;;;;;13.40;99.90;;;;;;1903065;73;20238;-70
2021/10/14 08:26:32;;;;;;;;;;;13.40;99.90;;;;;;1903942;73;20261;-70
2021/10/14 08:28:59;;;;;;;;;;;13.40;99.90;;;;;;1905705;73;20241;-69
2021/10/14 08:31:26;;;;;;;;;;;13.40;99.90;;;;;;1906310;73;20222;-70
2021/10/14 08:33:53;;;;;;;;;;;13.30;99.90;;;;;;1908582;73;21105;-70
2021/10/14 08:36:20;;;;;;;;;;;13.40;99.90;;;;;;1905927;73;20309;-70
2021/10/14 08:38:52;;;;;;;;;;;13.40;99.90;;;;;;1905472;73;20220;-70
2021/10/14 08:41:19;;;;;;;;;;;13.40;99.90;;;;;;1901913;73;20244;-70
2021/10/14 08:43:47;;;;;;;;;;;13.40;99.90;;;;;;1906909;73;20263;-70
2021/10/14 08:46:13;;;;;;;;;;;13.50;99.90;;;;;;1908364;73;20233;-69
2021/10/14 08:48:40;;;;;;;;;;;13.50;99.90;;;;;;1908161;73;20185;-70
2021/10/14 08:51:07;;;;;;;;;;;13.50;99.90;;;;;;1905774;73;20130;-70
2021/10/14 08:53:34;;;;;;;;;;;13.50;99.90;;;;;;1910843;73;20500;-69
2021/10/14 08:56:01;;;;;;;;;;;13.50;99.90;;;;;;1907621;73;20207;-70
2021/10/14 08:58:28;;;;;;;;;;;13.50;99.90;;;;;;1909080;73;20378;-70
2021/10/14 09:01:11;;;;;;;;;;;13.50;99.90;;;;;;1904615;73;20209;-69
2021/10/14 09:03:41;;;;;;;;;;;13.50;99.90;;;;;;1910453;73;20408;-68
2021/10/14 09:06:08;;;;;;;;;;;13.50;99.90;;;;;;1904276;73;20173;-69
2021/10/14 09:08:43;;;;;;;;;;;13.50;99.90;;;;;;1908463;73;20271;-69
2021/10/14 09:11:11;;;;;;;;;;;13.40;99.90;;;;;;1904305;73;20174;-70
2021/10/14 09:13:38;;;;;;;;;;;13.50;99.90;;;;;;1902281;73;20218;-69
2021/10/14 09:16:25;;;;;;;;;;;13.40;99.90;;;;;;1905141;73;20257;-69
2021/10/14 09:18:52;;;;;;;;;;;13.50;99.90;;;;;;1906537;73;20122;-69
2021/10/14 09:21:23;;;;;;;;;;;13.40;99.90;;;;;;1909754;73;20220;-70
2021/10/14 09:23:50;;;;;;;;;;;13.50;99.90;;;;;;1902697;73;20225;-69
2021/10/14 09:26:31;;;;;;;;;;;13.50;99.90;;;;;;1903281;73;20261;-69
2021/10/14 09:29:06;;;;;;;;;;;13.60;99.90;;;;;;1907652;73;20127;-70
2021/10/14 09:31:46;;;;;;;;;;;13.60;99.90;;;;;;1907555;73;20367;-69
2021/10/14 09:34:26;;;;;;;;;;;13.60;99.90;;;;;;1905643;73;20164;-69
2021/10/14 09:36:53;;;;;;;;;;;13.70;99.90;;;;;;1906648;73;20480;-70
2021/10/14 09:39:20;;;;;;;;;;;13.70;99.90;;;;;;1909544;73;20153;-70
2021/10/14 09:41:46;;;;;;;;;;;13.70;99.90;;;;;;1906288;73;20165;-70
2021/10/14 09:44:19;;;;;;;;;;;13.80;99.90;;;;;;1905617;73;20229;-68
2021/10/14 09:46:43;;;;;;;;;;;13.80;99.90;;;;;;1907403;73;20199;-70
2021/10/14 09:49:12;;;;;;;;;;;13.90;99.90;;;;;;1905332;73;20217;-70
2021/10/14 09:51:40;;;;;;;;;;;13.80;99.90;;;;;;1907575;73;20441;-70
2021/10/14 09:54:07;;;;;;;;;;;13.90;99.90;;;;;;1908112;73;20226;-70
2021/10/14 09:56:34;;;;;;;;;;;13.90;99.90;;;;;;1906175;73;20481;-70
2021/10/14 09:59:03;;;;;;;;;;;13.90;99.90;;;;;;1904264;73;20515;-69
2021/10/14 10:01:32;;;;;;;;;;;13.90;99.90;;;;;;1911753;72;21783;-76
2021/10/14 10:03:59;;;;;;;;;;;13.90;99.90;;;;;;1955360;73;20408;-77
2021/10/14 10:06:27;;;;;;;;;;;13.90;99.90;;;;;;1954327;73;20196;-77
2021/10/14 10:08:55;;;;;;;;;;;14.00;99.90;;;;;;1955006;72;20518;-76
2021/10/14 10:11:22;;;;;;;;;;;14.00;99.90;;;;;;1949344;73;20113;-75
2021/10/14 10:13:53;;;;;;;;;;;14.00;99.90;;;;;;1934401;73;20262;-75
2021/10/14 10:16:21;;;;;;;;;;;14.00;99.90;;;;;;1933208;73;20240;-75
2021/10/14 10:18:50;;;;;;;;;;;14.00;99.90;;;;;;1931383;73;20164;-75
2021/10/14 10:21:33;;;;;;;;;;;14.00;99.90;;;;;;1931363;73;20174;-76
2021/10/14 10:24:01;;;;;;;;;;;14.00;99.90;;;;;;1941614;73;20364;-75
2021/10/14 10:26:35;;;;;;;;;;;14.10;99.90;;;;;;1937592;73;20119;-76
2021/10/14 10:29:15;;;;;;;;;;;14.10;99.90;;;;;;1934979;73;20189;-76
2021/10/14 10:31:55;;;;;;;;;;;14.10;99.90;;;;;;1933293;73;20172;-76
2021/10/14 10:37:16;;;;;;;;;;;14.20;99.90;;;;;;1936903;73;20175;-76
2021/10/14 10:39:46;;;;;;;;;;;14.20;99.90;;;;;;1929136;73;20118;-77
2021/10/14 10:42:14;;;;;;;;;;;14.20;99.90;;;;;;1934835;73;20164;-76
2021/10/14 10:44:44;;;;;;;;;;;14.30;99.90;;;;;;1931339;73;20175;-76
2021/10/14 10:47:29;;;;;;;;;;;14.30;99.90;;;;;;1939727;73;20450;-76
2021/10/14 10:49:56;;;;;;;;;;;14.30;99.90;;;;;;1938620;73;20115;-77
2021/10/14 10:52:39;;;;;;;;;;;14.30;99.90;;;;;;1940814;73;20165;-77
2021/10/14 10:55:16;;;;;;;;;;;14.30;99.90;;;;;;1938572;73;20205;-77
2021/10/14 10:57:45;;;;;;;;;;;14.30;99.90;;;;;;1934304;73;20177;-76
2021/10/14 11:00:12;;;;;;;;;;;14.30;99.90;;;;;;1938008;73;20416;-77
2021/10/14 11:02:39;;;;;;;;;;;14.30;99.90;;;;;;1938102;73;20209;-77
2021/10/14 11:05:06;;;;;;;;;;;14.30;99.90;;;;;;1939212;73;20273;-77
2021/10/14 11:07:33;;;;;;;;;;;14.30;99.90;;;;;;1936008;73;20121;-77
2021/10/14 11:10:00;;;;;;;;;;;14.30;99.90;;;;;;1937997;73;20226;-77
2021/10/14 11:12:27;;;;;;;;;;;14.40;99.90;;;;;;1938511;73;20455;-77
2021/10/14 11:14:54;;;;;;;;;;;14.40;99.90;;;;;;1937405;73;20203;-77
2021/10/14 11:17:22;;;;;;;;;;;14.40;99.90;;;;;;1932222;73;20416;-77
2021/10/14 11:19:50;;;;;;;;;;;14.40;99.90;;;;;;1941005;73;20118;-77
2021/10/14 11:22:18;;;;;;;;;;;14.40;99.90;;;;;;1931713;73;20142;-77
2021/10/14 11:24:46;;;;;;;;;;;14.40;99.90;;;;;;1933952;73;20220;-77
2021/10/14 11:27:18;;;;;;;;;;;14.40;99.90;;;;;;1932662;73;20202;-77
2021/10/14 11:29:46;;;;;;;;;;;14.40;99.90;;;;;;1935181;73;20511;-76
2021/10/14 11:32:17;;;;;;;;;;;14.40;99.90;;;;;;1937050;73;20149;-76
2021/10/14 11:34:41;;;;;;;;;;;14.40;99.90;;;;;;1937829;73;20170;-76
2021/10/14 11:37:12;;;;;;;;;;;14.40;99.90;;;;;;1936119;73;20307;-76
2021/10/14 11:39:41;;;;;;;;;;;14.40;99.90;;;;;;1938342;73;20382;-75
2021/10/14 11:42:12;;;;;;;;;;;14.50;99.90;;;;;;1937287;73;20213;-76
2021/10/14 11:44:40;;;;;;;;;;;14.40;99.90;;;;;;1935551;73;20170;-76
2021/10/14 11:47:13;;;;;;;;;;;14.40;99.90;;;;;;1940050;73;20171;-76
2021/10/14 11:49:36;;;;;;;;;;;14.50;99.90;;;;;;1937330;73;20166;-76
2021/10/14 11:52:04;;;;;;;;;;;14.40;99.90;;;;;;1934262;73;20181;-76
2021/10/14 11:54:32;;;;;;;;;;;14.40;99.90;;;;;;1929696;73;20212;-75
2021/10/14 11:56:59;;;;;;;;;;;14.40;99.90;;;;;;1935669;73;20185;-76
2021/10/14 11:59:27;;;;;;;;;;;14.40;99.90;;;;;;1932007;73;20441;-75
2021/10/14 12:01:56;;;;;;;;;;;14.50;99.90;;;;;;1935703;73;20128;-75
2021/10/14 12:04:27;;;;;;;;;;;14.40;99.90;;;;;;1937192;73;20216;-75
2021/10/14 12:06:55;;;;;;;;;;;14.40;99.90;;;;;;1939855;73;20468;-76
2021/10/14 12:09:22;;;;;;;;;;;14.50;99.90;;;;;;1939956;73;20481;-76
2021/10/14 12:11:49;;;;;;;;;;;14.40;99.90;;;;;;1937927;72;20249;-76
2021/10/14 12:14:17;;;;;;;;;;;14.40;99.90;;;;;;1942816;73;20187;-76
2021/10/14 12:16:44;;;;;;;;;;;14.40;99.90;;;;;;1934168;73;20116;-76
2021/10/14 12:19:12;;;;;;;;;;;14.40;99.90;;;;;;1940882;73;20211;-76
2021/10/14 12:21:41;;;;;;;;;;;14.40;99.90;;;;;;1932033;73;20165;-75
2021/10/14 12:24:09;;;;;;;;;;;14.40;99.90;;;;;;1940425;73;20438;-76
2021/10/14 12:26:38;;;;;;;;;;;14.40;99.90;;;;;;1937549;73;20122;-76
2021/10/14 12:29:18;;;;;;;;;;;14.40;99.90;;;;;;1940237;73;20378;-76
2021/10/14 12:31:45;;;;;;;;;;;14.40;99.90;;;;;;1936787;73;20194;-76
2021/10/14 12:34:12;;;;;;;;;;;14.40;99.90;;;;;;1937039;73;20173;-76
2021/10/14 12:36:46;;;;;;;;;;;14.40;99.90;;;;;;1936329;73;20498;-76
2021/10/14 12:39:23;;;;;;;;;;;14.40;99.90;;;;;;1932358;73;20115;-76
2021/10/14 12:41:54;;;;;;;;;;;14.50;99.90;;;;;;1935095;73;20159;-76
2021/10/14 12:44:25;;;;;;;;;;;14.40;99.90;;;;;;1937732;73;20631;-76
2021/10/14 12:52:03;;;;;;;;;;;14.60;99.90;;;;;;1905788;73;20185;-76
2021/10/14 12:54:30;;;;;;;;;;;14.60;99.90;;;;;;1933181;73;20158;-76
2021/10/14 12:57:01;;;;;;;;;;;14.60;99.90;;;;;;1932596;73;20169;-76
2021/10/14 12:59:29;;;;;;;;;;;14.60;99.90;;;;;;1933728;73;20513;-76
2021/10/14 13:01:59;;;;;;;;;;;14.60;99.90;;;;;;1937333;73;20343;-76
2021/10/14 13:04:26;;;;;;;;;;;14.70;99.90;;;;;;1932563;73;20491;-75
2021/10/14 13:06:53;;;;;;;;;;;14.70;99.90;;;;;;1934856;73;20187;-76
2021/10/14 13:09:29;;;;;;;;;;;14.80;99.90;;;;;;1936002;73;20244;-76
2021/10/14 13:11:54;;;;;;;;;;;14.80;99.90;;;;;;1935268;73;20185;-76
2021/10/14 13:14:21;;;;;;;;;;;14.90;99.90;;;;;;1937328;73;20224;-76
2021/10/14 13:16:48;;;;;;;;;;;15.00;99.90;;;;;;1936560;73;20127;-76
2021/10/14 13:19:15;;;;;;;;;;;15.00;99.90;;;;;;1936647;73;20178;-76
2021/10/14 13:21:42;;;;;;;;;;;15.00;99.90;;;;;;1938025;73;20518;-76
2021/10/14 13:24:09;;;;;;;;;;;15.10;99.90;;;;;;1935193;73;20182;-76
2021/10/14 13:26:36;;;;;;;;;;;15.10;99.90;;;;;;1935586;73;20122;-76
2021/10/14 13:29:04;;;;;;;;;;;15.10;99.90;;;;;;1935602;73;20167;-76
2021/10/14 13:31:31;;;;;;;;;;;15.10;99.90;;;;;;1933665;73;20464;-75
2021/10/14 13:33:57;;;;;;;;;;;15.10;99.90;;;;;;1934668;73;20156;-75
2021/10/14 13:36:24;;;;;;;;;;;15.10;99.90;;;;;;1937242;73;20189;-75
2021/10/14 13:38:54;;;;;;;;;;;15.10;99.90;;;;;;1933338;73;20279;-76
2021/10/14 13:41:22;;;;;;;;;;;15.10;99.90;;;;;;1937794;73;20288;-75
2021/10/14 13:43:57;;;;;;;;;;;15.10;99.90;;;;;;1936997;73;20344;-76
2021/10/14 13:46:18;;;;;;;;;;;15.10;99.90;;;;;;1935624;73;20126;-76
2021/10/14 13:48:45;;;;;;;;;;;15.10;99.90;;;;;;1931335;73;20174;-75
2021/10/14 13:51:12;;;;;;;;;;;15.10;99.90;;;;;;1939753;73;20126;-75
2021/10/14 13:53:39;;;;;;;;;;;15.10;99.90;;;;;;1938434;73;20119;-76
2021/10/14 13:56:06;;;;;;;;;;;15.10;99.90;;;;;;1933634;73;20185;-76
2021/10/14 13:58:33;;;;;;;;;;;15.00;99.90;;;;;;1941495;73;20209;-76
2021/10/14 14:00:59;;;;;;;;;;;15.00;99.90;;;;;;1940461;73;20262;-76
2021/10/14 14:03:26;;;;;;;;;;;15.00;99.90;;;;;;1938455;73;20166;-76
2021/10/14 14:05:53;;;;;;;;;;;15.00;99.90;;;;;;1938587;73;20171;-77
2021/10/14 14:08:20;;;;;;;;;;;15.00;99.90;;;;;;1934067;73;20433;-74
2021/10/14 14:10:48;;;;;;;;;;;15.00;99.90;;;;;;1932858;73;20618;-77
2021/10/14 14:16:02;;;;;;;;;;;14.90;99.90;;;;;;1888733;75;20484;-77
2021/10/14 14:18:29;;;;;;;;;;;14.90;99.90;;;;;;1888747;75;20229;-77
2021/10/14 14:20:56;;;;;;;;;;;14.80;99.90;;;;;;1885298;75;20177;-77
2021/10/14 14:23:23;;;;;;;;;;;14.80;99.90;;;;;;1871579;76;20524;-77
2021/10/14 14:25:50;;;;;;;;;;;14.90;99.90;;;;;;1872965;76;20206;-77
2021/10/14 14:28:17;;;;;;;;;;;14.90;99.90;;;;;;1874385;76;20157;-77
2021/10/14 14:30:44;;;;;;;;;;;14.90;99.90;;;;;;1874363;76;20110;-77